createdAt,value
2024-02-23T00:02:26.827Z,97395.72
2024-02-23T00:04:56.541Z,97396.44
2024-02-23T00:07:24.349Z,97410.19
2024-02-23T00:09:52.213Z,97415.22
2024-02-23T00:12:20.175Z,97420.75
2024-02-23T00:14:48.202Z,97438.09
2024-02-23T00:17:16.638Z,97446.84
2024-02-23T00:19:47.319Z,97455.56
2024-02-23T00:22:17.220Z,97463.97
2024-02-23T00:24:45.181Z,97466.38
2024-02-23T00:27:13.121Z,97470.97
2024-02-23T00:29:41.813Z,97491.78
2024-02-23T00:32:09.949Z,97476.97
2024-02-23T00:34:38.410Z,97508.88
2024-02-23T00:37:06.887Z,97521.94
2024-02-23T00:39:37.599Z,97528.13
2024-02-23T00:42:05.716Z,97524.19
2024-02-23T00:44:33.670Z,97547.94
2024-02-23T00:47:02.871Z,97584.63
2024-02-23T00:49:30.880Z,97609.59
2024-02-23T00:51:58.772Z,97602.47
2024-02-23T00:54:27.014Z,97618.22
2024-02-23T00:56:57.713Z,97628.50
2024-02-23T00:59:25.858Z,97650.53
2024-02-23T01:01:53.741Z,97657.31
2024-02-23T01:04:21.754Z,97668.88
2024-02-23T01:06:49.972Z,97676.72
2024-02-23T01:09:21.501Z,97691.47
2024-02-23T01:11:49.816Z,97692.59
2024-02-23T01:14:19.779Z,97711.91
2024-02-23T01:16:47.680Z,97714.44
2024-02-23T01:19:16.985Z,97745.25
2024-02-23T01:21:44.854Z,97750.13
2024-02-23T01:24:12.626Z,97749.00
2024-02-23T01:26:43.264Z,97770.13
2024-02-23T01:29:11.562Z,97765.53
2024-02-23T01:31:40.712Z,97780.13
2024-02-23T01:34:08.649Z,97791.41
2024-02-23T01:36:37.564Z,97777.06
2024-02-23T01:39:06.024Z,97779.72
2024-02-23T01:41:34.279Z,97781.19
2024-02-23T01:44:02.113Z,97794.31
2024-02-23T01:46:30.981Z,97793.28
2024-02-23T01:49:00.344Z,97796.97
2024-02-23T01:51:28.977Z,97812.16
2024-02-23T01:53:57.256Z,97819.25
2024-02-23T01:56:25.170Z,97822.16
2024-02-23T01:58:55.020Z,97821.50
2024-02-23T02:01:22.916Z,97830.81
2024-02-23T02:03:50.808Z,97841.31
2024-02-23T02:06:20.265Z,97833.00
2024-02-23T02:08:48.831Z,97841.69
2024-02-23T02:11:17.671Z,97842.53
2024-02-23T02:13:45.748Z,97837.69
2024-02-23T02:16:13.860Z,97853.03
2024-02-23T02:18:41.644Z,97865.78
2024-02-23T02:21:10.013Z,97871.03
2024-02-23T02:23:39.510Z,97866.00
2024-02-23T02:26:07.500Z,97877.09
2024-02-23T02:28:35.953Z,97882.97
2024-02-23T02:31:04.217Z,97888.84
2024-02-23T02:33:32.165Z,97891.66
2024-02-23T02:36:00.144Z,97889.25
2024-02-23T02:38:28.544Z,97898.78
2024-02-23T02:40:58.640Z,97894.34
2024-02-23T02:43:27.126Z,97907.88
2024-02-23T02:45:54.981Z,97910.50
2024-02-23T02:48:22.983Z,97928.06
2024-02-23T02:50:54.273Z,97925.44
2024-02-23T02:53:22.470Z,97937.94
2024-02-23T02:55:50.405Z,97940.38
2024-02-23T02:58:20.050Z,97933.09
2024-02-23T03:00:47.955Z,97935.94
2024-02-23T03:03:15.786Z,97932.50
2024-02-23T03:05:43.870Z,97943.00
2024-02-23T03:08:12.012Z,97943.19
2024-02-23T03:10:40.029Z,97945.00
2024-02-23T03:13:07.854Z,97937.56
2024-02-23T03:15:37.178Z,97946.22
2024-02-23T03:18:05.992Z,97948.06
2024-02-23T03:20:34.253Z,97964.00
2024-02-23T03:23:02.358Z,97956.31
2024-02-23T03:25:30.200Z,97962.38
2024-02-23T03:27:58.824Z,97967.81
2024-02-23T03:30:26.905Z,97974.09
2024-02-23T03:32:56.625Z,97967.41
2024-02-23T03:35:24.501Z,97959.50
2024-02-23T03:37:52.365Z,97959.50
2024-02-23T03:40:20.341Z,97965.16
2024-02-23T03:42:48.134Z,97961.91
2024-02-23T03:45:16.317Z,97971.00
2024-02-23T03:47:44.635Z,97971.19
2024-02-23T03:50:14.279Z,97968.75
2024-02-23T03:52:42.389Z,97975.66
2024-02-23T03:55:10.751Z,97982.31
2024-02-23T03:57:38.796Z,97985.75
2024-02-23T04:00:09.020Z,97978.69
2024-02-23T04:02:41.799Z,97984.56
2024-02-23T04:05:10.171Z,97987.59
2024-02-23T04:07:39.402Z,97996.72
2024-02-23T04:10:08.908Z,97994.69
2024-02-23T04:12:36.829Z,97996.13
2024-02-23T04:15:05.706Z,97998.78
2024-02-23T04:17:33.676Z,97996.16
2024-02-23T04:20:07.783Z,98002.81
2024-02-23T04:22:35.757Z,98016.78
2024-02-23T04:25:06.059Z,98009.72
2024-02-23T04:27:33.945Z,98002.22
2024-02-23T04:30:01.741Z,98015.53
2024-02-23T04:32:30.207Z,98011.91
2024-02-23T04:34:58.487Z,98024.25
2024-02-23T04:37:26.455Z,98031.50
2024-02-23T04:39:54.407Z,98035.16
2024-02-23T04:42:23.570Z,98041.63
2024-02-23T04:44:53.864Z,98045.66
2024-02-23T04:47:22.325Z,98057.78
2024-02-23T04:49:50.768Z,98050.94
2024-02-23T04:52:18.611Z,98056.56
2024-02-23T04:54:46.441Z,98065.69
2024-02-23T04:57:14.429Z,98063.06
2024-02-23T04:59:43.949Z,98067.09
2024-02-23T05:02:11.812Z,98074.38
2024-02-23T05:04:39.958Z,98070.53
2024-02-23T05:07:07.787Z,98075.19
2024-02-23T05:09:36.169Z,98075.59
2024-02-23T05:12:04.332Z,98081.47
2024-02-23T05:14:32.727Z,98079.66
2024-02-23T05:17:02.185Z,98074.56
2024-02-23T05:19:30.351Z,98097.84
2024-02-23T05:21:58.299Z,98091.59
2024-02-23T05:24:26.668Z,98090.97
2024-02-23T05:26:54.558Z,98096.22
2024-02-23T05:29:23.606Z,98103.53
2024-02-23T05:31:55.105Z,98106.16
2024-02-23T05:34:24.416Z,98103.09
2024-02-23T05:36:52.901Z,98105.34
2024-02-23T05:39:20.761Z,98091.75
2024-02-23T05:41:49.225Z,98093.63
2024-02-23T05:44:17.033Z,98101.69
2024-02-23T05:46:45.057Z,98109.38
2024-02-23T05:49:13.667Z,98101.50
2024-02-23T05:51:43.160Z,98099.47
2024-02-23T05:54:10.980Z,98118.06
2024-02-23T05:56:39.500Z,98119.69
2024-02-23T05:59:07.652Z,98111.22
2024-02-23T06:01:35.657Z,98116.66
2024-02-23T06:04:03.567Z,98117.47
2024-02-23T06:06:32.564Z,98114.84
2024-02-23T06:09:03.508Z,98112.41
2024-02-23T06:11:31.586Z,98108.78
2024-02-23T06:14:00.295Z,98111.59
2024-02-23T06:16:31.592Z,98110.19
2024-02-23T06:18:59.536Z,98109.16
2024-02-23T06:21:27.654Z,98115.06
2024-02-23T06:23:55.595Z,98107.34
2024-02-23T06:26:25.200Z,98114.00
2024-02-23T06:28:53.036Z,98114.44
2024-02-23T06:31:21.180Z,98121.50
2024-02-23T06:33:50.797Z,98116.84
2024-02-23T06:36:20.087Z,98113.38
2024-02-23T06:38:48.745Z,98122.50
2024-02-23T06:41:17.126Z,98118.25
2024-02-23T06:43:46.360Z,98125.31
2024-02-23T06:46:14.260Z,98116.81
2024-02-23T06:48:42.195Z,98125.66
2024-02-23T06:51:10.854Z,98126.44
2024-02-23T06:53:39.353Z,98121.38
2024-02-23T06:56:08.447Z,98131.38
2024-02-23T06:58:36.487Z,98122.84
2024-02-23T07:01:07.356Z,98132.16
2024-02-23T07:03:36.473Z,98150.09
2024-02-23T07:06:04.688Z,98150.09
2024-02-23T07:08:32.771Z,98150.06
2024-02-23T07:11:01.572Z,98155.47
2024-02-23T07:13:29.904Z,98154.91
2024-02-23T07:15:58.232Z,98157.06
2024-02-23T07:18:27.669Z,98160.13
2024-02-23T07:20:55.776Z,98147.41
2024-02-23T07:23:23.984Z,98154.28
2024-02-23T07:25:52.570Z,98144.59
2024-02-23T07:28:21.169Z,98150.03
2024-02-23T07:30:49.893Z,98148.22
2024-02-23T07:33:17.880Z,98140.16
2024-02-23T07:35:47.251Z,98144.41
2024-02-23T07:38:15.208Z,98154.31
2024-02-23T07:40:43.194Z,98137.13
2024-02-23T07:43:12.253Z,98145.44
2024-02-23T07:45:40.108Z,98153.72
2024-02-23T07:48:09.936Z,98147.28
2024-02-23T07:50:37.948Z,98152.16
2024-02-23T07:53:07.390Z,98155.59
2024-02-23T07:55:35.528Z,98155.41
2024-02-23T07:58:03.613Z,98148.94
2024-02-23T08:00:31.462Z,98144.13
2024-02-23T08:03:00.675Z,98147.00
2024-02-23T08:05:28.804Z,98154.28
2024-02-23T08:07:56.880Z,98154.53
2024-02-23T08:10:27.635Z,98160.78
2024-02-23T08:12:55.888Z,98156.75
2024-02-23T08:15:23.708Z,98174.56
2024-02-23T08:17:52.313Z,98174.97
2024-02-23T08:20:20.683Z,98186.31
2024-02-23T08:22:49.123Z,98182.91
2024-02-23T08:25:17.624Z,98213.47
2024-02-23T08:27:47.449Z,98215.88
2024-02-23T08:30:16.468Z,98213.47
2024-02-23T08:32:44.378Z,98219.75
2024-02-23T08:35:12.439Z,98218.75
2024-02-23T08:37:40.393Z,98220.38
2024-02-23T08:40:10.544Z,98217.97
2024-02-23T08:42:38.380Z,98218.78
2024-02-23T08:45:08.741Z,98222.03
2024-02-23T08:47:37.309Z,98224.69
2024-02-23T08:50:05.855Z,98215.16
2024-02-23T08:52:33.714Z,98226.31
2024-02-23T08:55:02.409Z,98225.94
2024-02-23T08:57:30.484Z,98237.03
2024-02-23T08:59:59.135Z,98232.41
2024-02-23T09:02:29.038Z,98236.84
2024-02-23T09:04:57.049Z,98250.53
2024-02-23T09:07:25.218Z,98245.00
2024-02-23T09:09:53.596Z,98245.53
2024-02-23T09:12:21.561Z,98248.88
2024-02-23T09:14:49.875Z,98242.28
2024-02-23T09:17:19.765Z,98249.41
2024-02-23T09:19:50.555Z,98243.59
2024-02-23T09:22:18.367Z,98252.00
2024-02-23T09:24:46.181Z,98255.59
2024-02-23T09:27:14.029Z,98249.03
2024-02-23T09:29:42.810Z,98238.97
2024-02-23T09:32:10.970Z,98247.88
2024-02-23T09:34:38.806Z,98241.84
2024-02-23T09:37:08.200Z,98239.31
2024-02-23T09:39:36.039Z,98235.41
2024-02-23T09:42:03.986Z,98232.69
2024-02-23T09:44:35.568Z,98244.81
2024-02-23T09:47:09.272Z,98241.25
2024-02-23T09:49:41.277Z,98255.41
2024-02-23T09:52:12.184Z,98265.19
2024-02-23T09:54:40.940Z,98265.69
2024-02-23T09:57:09.958Z,98254.53
2024-02-23T09:59:38.204Z,98270.44
2024-02-23T10:02:11.057Z,98267.59
2024-02-23T10:04:40.271Z,98266.38
2024-02-23T10:07:08.620Z,98248.47
2024-02-23T10:09:38.029Z,98272.72
2024-02-23T10:12:06.591Z,98280.94
2024-02-23T10:14:34.945Z,98281.50
2024-02-23T10:17:03.439Z,98291.00
2024-02-23T10:19:31.442Z,98293.91
2024-02-23T10:21:59.519Z,98285.97
2024-02-23T10:24:27.631Z,98285.97
2024-02-23T10:26:57.232Z,98292.97
2024-02-23T10:29:25.599Z,98283.91
2024-02-23T10:31:54.833Z,98276.94
2024-02-23T10:34:23.117Z,98281.00
2024-02-23T10:36:51.800Z,98299.47
2024-02-23T10:39:20.970Z,98261.66
2024-02-23T10:41:54.745Z,98270.63
2024-02-23T10:44:24.258Z,98287.75
2024-02-23T10:46:53.211Z,98281.66
2024-02-23T10:49:23.941Z,98261.66
2024-02-23T10:51:53.306Z,98289.50
2024-02-23T10:54:22.800Z,98289.72
2024-02-23T10:56:52.790Z,98275.81
2024-02-23T10:59:23.851Z,98270.41
2024-02-23T11:01:55.117Z,98284.78
2024-02-23T11:04:24.770Z,98281.50
2024-02-23T11:06:53.206Z,98279.41
2024-02-23T11:09:23.906Z,98265.19
2024-02-23T11:11:56.662Z,98266.16
2024-02-23T11:14:34.591Z,98264.50
2024-02-23T11:17:04.877Z,98259.22
2024-02-23T11:19:37.265Z,98259.91
2024-02-23T11:22:07.704Z,98254.72
2024-02-23T11:24:36.841Z,98250.56
2024-02-23T11:27:09.455Z,98247.72
2024-02-23T11:29:40.679Z,98255.47
2024-02-23T11:32:17.395Z,98242.44
2024-02-23T11:34:57.840Z,98243.84
2024-02-23T11:37:25.936Z,98252.81
2024-02-23T11:39:54.324Z,98248.88
2024-02-23T11:42:23.009Z,98249.00
2024-02-23T11:44:52.118Z,98254.06
2024-02-23T11:47:21.585Z,98255.66
2024-02-23T11:49:49.480Z,98255.47
2024-02-23T11:52:18.165Z,98251.31
2024-02-23T11:54:46.800Z,98249.25
2024-02-23T11:57:15.697Z,98253.84
2024-02-23T11:59:43.960Z,98249.34
2024-02-23T12:02:11.898Z,98253.38
2024-02-23T12:04:41.155Z,98259.25
2024-02-23T12:07:09.059Z,98262.84
2024-02-23T12:09:37.036Z,98248.91
2024-02-23T12:12:05.853Z,98257.41
2024-02-23T12:14:33.770Z,98257.41
2024-02-23T12:17:01.689Z,98259.50
2024-02-23T12:19:29.948Z,98266.44
2024-02-23T12:22:02.142Z,98249.25
2024-02-23T12:24:31.644Z,98250.63
2024-02-23T12:26:59.771Z,98252.16
2024-02-23T12:29:28.177Z,98240.94
2024-02-23T12:32:05.326Z,98252.38
2024-02-23T12:34:33.387Z,98252.16
2024-02-23T12:37:04.532Z,98251.25
2024-02-23T12:39:33.197Z,98247.88
2024-02-23T12:42:01.109Z,98261.47
2024-02-23T12:44:29.203Z,98256.16
2024-02-23T12:46:57.090Z,98251.56
2024-02-23T12:49:25.674Z,98257.94
2024-02-23T12:51:53.723Z,98253.44
2024-02-23T12:54:23.152Z,98258.03
2024-02-23T12:56:50.959Z,98243.38
2024-02-23T12:59:19.311Z,98250.09
2024-02-23T13:01:50.245Z,98237.34
2024-02-23T13:04:20.291Z,98237.25
2024-02-23T13:06:48.565Z,98239.16
2024-02-23T13:09:16.666Z,98237.94
2024-02-23T13:11:47.258Z,98246.50
2024-02-23T13:14:17.388Z,98238.28
2024-02-23T13:16:45.539Z,98253.41
2024-02-23T13:19:13.476Z,98251.38
2024-02-23T13:21:41.522Z,98240.66
2024-02-23T13:24:09.447Z,98243.22
2024-02-23T13:26:37.473Z,98246.44
2024-02-23T13:29:06.949Z,98244.25
2024-02-23T13:31:34.988Z,98234.94
2024-02-23T13:34:03.130Z,98246.00
2024-02-23T13:36:31.212Z,98245.19
2024-02-23T13:39:01.032Z,98241.50
2024-02-23T13:41:29.490Z,98247.84
2024-02-23T13:43:57.476Z,98249.69
2024-02-23T13:46:27.560Z,98253.81
2024-02-23T13:49:05.826Z,98259.59
2024-02-23T13:51:34.260Z,98254.25
2024-02-23T13:54:02.475Z,98262.78
2024-02-23T13:56:30.448Z,98263.31
2024-02-23T13:58:58.349Z,98269.53
2024-02-23T14:01:27.669Z,98266.44
2024-02-23T14:03:55.780Z,98271.53
2024-02-23T14:06:23.877Z,98290.38
2024-02-23T14:08:51.864Z,98275.28
2024-02-23T14:11:20.523Z,98279.19
2024-02-23T14:13:51.787Z,98298.03
2024-02-23T14:16:20.208Z,98298.38
2024-02-23T14:18:49.410Z,98304.41
2024-02-23T14:21:19.115Z,98296.91
2024-02-23T14:23:47.089Z,98299.63
2024-02-23T14:26:14.943Z,98314.31
2024-02-23T14:28:42.878Z,98313.25
2024-02-23T14:31:10.922Z,98314.84
2024-02-23T14:33:39.300Z,98305.19
2024-02-23T14:36:09.000Z,98310.97
2024-02-23T14:38:36.999Z,98317.47
2024-02-23T14:41:06.296Z,98319.09
2024-02-23T14:43:34.186Z,98313.88
2024-02-23T14:46:02.076Z,98316.41
2024-02-23T14:48:30.376Z,98308.31
2024-02-23T14:50:58.976Z,98307.06
2024-02-23T14:53:29.392Z,98310.78
2024-02-23T14:55:58.035Z,98324.84
2024-02-23T14:58:25.954Z,98311.50
2024-02-23T15:00:53.836Z,98320.03
2024-02-23T15:03:21.834Z,98321.25
2024-02-23T15:05:49.751Z,98323.53
2024-02-23T15:08:18.220Z,98318.09
2024-02-23T15:10:47.534Z,98323.78
2024-02-23T15:13:16.689Z,98328.41
2024-02-23T15:15:44.683Z,98329.78
2024-02-23T15:18:12.885Z,98334.84
2024-02-23T15:20:40.910Z,98329.56
2024-02-23T15:23:09.328Z,98334.03
2024-02-23T15:25:40.912Z,98333.22
2024-02-23T15:28:13.063Z,98329.81
2024-02-23T15:30:40.893Z,98332.25
2024-02-23T15:33:09.524Z,98337.75
2024-02-23T15:35:37.735Z,98338.19
2024-02-23T15:38:06.684Z,98342.66
2024-02-23T15:40:34.786Z,98339.25
2024-02-23T15:43:04.645Z,98330.88
2024-02-23T15:45:34.078Z,98336.97
2024-02-23T15:48:02.078Z,98340.66
2024-02-23T15:50:50.089Z,98349.22
2024-02-23T15:53:20.820Z,98335.59
2024-02-23T15:55:48.903Z,98328.13
2024-02-23T15:58:18.653Z,98333.19
2024-02-23T16:00:49.466Z,98328.75
2024-02-23T16:03:17.844Z,98330.25
2024-02-23T16:05:45.813Z,98330.47
2024-02-23T16:08:15.963Z,98329.25
2024-02-23T16:10:44.832Z,98331.91
2024-02-23T16:13:13.061Z,98335.00
2024-02-23T16:15:40.982Z,98338.00
2024-02-23T16:18:10.253Z,98340.44
2024-02-23T16:20:38.228Z,98336.19
2024-02-23T16:23:06.307Z,98334.56
2024-02-23T16:25:34.240Z,98339.44
2024-02-23T16:28:02.034Z,98345.72
2024-02-23T16:30:31.454Z,98339.84
2024-02-23T16:32:59.906Z,98347.75
2024-02-23T16:35:30.215Z,98345.34
2024-02-23T16:37:58.227Z,98353.88
2024-02-23T16:40:30.115Z,98357.53
2024-02-23T16:42:58.628Z,98355.91
2024-02-23T16:45:28.217Z,98364.22
2024-02-23T16:47:57.046Z,98359.16
2024-02-23T16:50:25.330Z,98362.81
2024-02-23T16:52:54.928Z,98364.22
2024-02-23T16:55:23.018Z,98357.16
2024-02-23T16:57:51.325Z,98359.97
2024-02-23T17:00:20.032Z,98368.28
2024-02-23T17:02:48.152Z,98362.22
2024-02-23T17:05:16.139Z,98370.94
2024-02-23T17:07:44.327Z,98360.97
2024-02-23T17:10:13.684Z,98374.94
2024-02-23T17:12:46.089Z,98378.38
2024-02-23T17:15:13.981Z,98385.00
2024-02-23T17:17:41.913Z,98382.34
2024-02-23T17:20:11.160Z,98382.78
2024-02-23T17:22:39.507Z,98386.41
2024-02-23T17:25:08.917Z,98382.16
2024-02-23T17:27:39.459Z,98394.88
2024-02-23T17:30:08.516Z,98393.88
2024-02-23T17:32:36.461Z,98393.88
2024-02-23T17:35:05.263Z,98397.75
2024-02-23T17:37:33.200Z,98396.50
2024-02-23T17:40:01.074Z,98396.28
2024-02-23T17:42:28.934Z,98404.75
2024-02-23T17:44:58.218Z,98413.84
2024-02-23T17:47:26.427Z,98401.50
2024-02-23T17:49:54.449Z,98418.50
2024-02-23T17:52:22.330Z,98419.75
2024-02-23T17:54:51.205Z,98429.31
2024-02-23T17:57:20.788Z,98423.88
2024-02-23T17:59:50.310Z,98423.50
2024-02-23T18:02:19.796Z,98423.09
2024-02-23T18:04:49.696Z,98426.56
2024-02-23T18:07:17.727Z,98426.97
2024-02-23T18:09:45.833Z,98431.03
2024-02-23T18:12:13.874Z,98440.38
2024-02-23T18:14:42.020Z,98440.75
2024-02-23T18:17:10.091Z,98439.75
2024-02-23T18:19:43.151Z,98449.09
2024-02-23T18:22:12.119Z,98449.50
2024-02-23T18:24:40.101Z,98438.75
2024-02-23T18:27:08.790Z,98450.13
2024-02-23T18:29:37.453Z,98455.00
2024-02-23T18:32:06.801Z,98454.78
2024-02-23T18:34:34.906Z,98448.69
2024-02-23T18:37:09.725Z,98448.91
2024-02-23T18:39:37.936Z,98445.47
2024-02-23T18:42:06.412Z,98452.94
2024-02-23T18:44:34.380Z,98454.75
2024-02-23T18:47:02.325Z,98461.25
2024-02-23T18:49:34.493Z,98453.09
2024-02-23T18:52:04.906Z,98451.06
2024-02-23T18:54:33.437Z,98448.00
2024-02-23T18:57:03.682Z,98452.44
2024-02-23T18:59:31.861Z,98460.34
2024-02-23T19:02:01.238Z,98458.72
2024-02-23T19:04:30.488Z,98459.16
2024-02-23T19:06:58.420Z,98465.22
2024-02-23T19:09:27.848Z,98462.16
2024-02-23T19:11:55.859Z,98464.22
2024-02-23T19:14:23.966Z,98470.28
2024-02-23T19:16:52.188Z,98475.53
2024-02-23T19:19:20.534Z,98470.28
2024-02-23T19:21:48.511Z,98472.13
2024-02-23T19:24:17.248Z,98465.44
2024-02-23T19:26:47.381Z,98464.06
2024-02-23T19:29:15.613Z,98468.72
2024-02-23T19:31:43.726Z,98473.81
2024-02-23T19:34:12.303Z,98463.91
2024-02-23T19:36:40.813Z,98474.00
2024-02-23T19:39:13.088Z,98482.72
2024-02-23T19:41:44.650Z,98484.97
2024-02-23T19:44:14.241Z,98479.53
2024-02-23T19:46:42.753Z,98473.84
2024-02-23T19:49:11.361Z,98478.09
2024-02-23T19:51:40.068Z,98476.69
2024-02-23T19:54:08.712Z,98481.53
2024-02-23T19:56:36.661Z,98484.59
2024-02-23T19:59:04.879Z,98486.81
2024-02-23T20:01:34.185Z,98481.75
2024-02-23T20:04:02.270Z,98478.09
2024-02-23T20:06:30.196Z,98468.19
2024-02-23T20:08:58.056Z,98477.28
2024-02-23T20:11:26.001Z,98477.09
2024-02-23T20:13:54.189Z,98475.91
2024-02-23T20:16:22.388Z,98472.66
2024-02-23T20:18:51.963Z,98475.09
2024-02-23T20:21:20.001Z,98479.13
2024-02-23T20:23:47.901Z,98486.25
2024-02-23T20:26:16.031Z,98484.41
2024-02-23T20:28:43.880Z,98490.28
2024-02-23T20:31:11.748Z,98480.16
2024-02-23T20:33:41.233Z,98478.72
2024-02-23T20:36:11.394Z,98475.66
2024-02-23T20:38:39.348Z,98478.31
2024-02-23T20:41:07.346Z,98480.34
2024-02-23T20:43:35.242Z,98481.72
2024-02-23T20:46:03.128Z,98486.19
2024-02-23T20:48:31.166Z,98477.06
2024-02-23T20:51:00.004Z,98484.53
2024-02-23T20:53:29.908Z,98482.09
2024-02-23T20:55:58.882Z,98489.59
2024-02-23T20:58:27.919Z,98486.50
2024-02-23T21:00:58.043Z,98496.38
2024-02-23T21:03:31.268Z,98490.88
2024-02-23T21:05:59.568Z,98498.72
2024-02-23T21:08:28.919Z,98498.88
2024-02-23T21:10:57.065Z,98493.94
2024-02-23T21:13:24.939Z,98498.78
2024-02-23T21:15:51.832Z,98507.84
2024-02-23T21:18:20.437Z,98504.72
2024-02-23T21:20:49.102Z,98500.19
2024-02-23T21:23:17.715Z,98505.34
2024-02-23T21:25:47.064Z,98502.03
2024-02-23T21:28:15.330Z,98499.50
2024-02-23T21:30:49.059Z,98504.22
2024-02-23T21:33:18.052Z,98503.94
2024-02-23T21:35:46.433Z,98503.38
2024-02-23T21:38:14.851Z,98511.19
2024-02-23T21:40:42.741Z,98503.44
2024-02-23T21:43:12.243Z,98506.22
2024-02-23T21:45:40.263Z,98508.84
2024-02-23T21:48:08.532Z,98501.38
2024-02-23T21:50:36.409Z,98509.59
2024-02-23T21:53:04.572Z,98501.31
2024-02-23T21:55:32.479Z,98499.69
2024-02-23T21:58:00.317Z,98494.34
2024-02-23T22:00:29.519Z,98503.22
2024-02-23T22:03:04.065Z,98504.03
2024-02-23T22:05:32.080Z,98499.03
2024-02-23T22:08:00.079Z,98504.28
2024-02-23T22:10:27.895Z,98504.22
2024-02-23T22:12:55.947Z,98495.72
2024-02-23T22:15:23.795Z,98501.25
2024-02-23T22:17:53.167Z,98503.88
2024-02-23T22:20:21.638Z,98507.84
2024-02-23T22:22:49.574Z,98503.34
2024-02-23T22:25:17.731Z,98506.31
2024-02-23T22:27:45.535Z,98497.75
2024-02-23T22:30:13.776Z,98499.75
2024-02-23T22:32:42.511Z,98497.88
2024-02-23T22:35:14.856Z,98499.75
2024-02-23T22:37:43.047Z,98503.63
2024-02-23T22:40:14.660Z,98503.72
2024-02-23T22:42:42.956Z,98503.63
2024-02-23T22:45:12.994Z,98504.19
2024-02-23T22:47:41.592Z,98502.88
2024-02-23T22:50:12.278Z,98505.69
2024-02-23T22:52:40.164Z,98500.66
2024-02-23T22:55:08.777Z,98508.03
2024-02-23T22:57:36.642Z,98509.03
2024-02-23T23:00:04.960Z,98499.91
2024-02-23T23:02:33.724Z,98499.63
2024-02-23T23:05:01.950Z,98502.59
2024-02-23T23:07:33.170Z,98503.69
2024-02-23T23:10:02.047Z,98501.53
2024-02-23T23:12:30.008Z,98509.22
2024-02-23T23:14:57.922Z,98500.09
2024-02-23T23:17:25.869Z,98510.03
2024-02-23T23:19:54.052Z,98506.06
2024-02-23T23:22:22.549Z,98507.16
2024-02-23T23:24:51.795Z,98512.06
2024-02-23T23:27:19.790Z,98510.84
2024-02-23T23:29:47.716Z,98513.31
2024-02-23T23:32:15.586Z,98505.00
2024-02-23T23:34:44.015Z,98509.88
2024-02-23T23:37:12.098Z,98509.59
2024-02-23T23:39:40.556Z,98513.22
2024-02-23T23:42:09.858Z,98507.97
2024-02-23T23:44:38.093Z,98509.88
2024-02-23T23:47:06.294Z,98513.13
2024-02-23T23:49:34.177Z,98505.72
2024-02-23T23:52:04.904Z,98514.13
2024-02-23T23:54:33.701Z,98506.91
2024-02-23T23:57:01.690Z,98507.53
2024-02-23T23:59:31.017Z,98506.72
